This demonstration page uses our WeatherBlox Daily Observations layout. Learn more.

38.89511, -77.03637

Hourly Observations for July 12, 2017

Temp ( °F °C ) Dew Point ( °F °C ) Humidity (%) Winds ( mph kmh ) Pressure ( in mb ) Visibility ( mi km ) Precip ( " mm )
12:52 am 00:52 Cloudy 81 27.2 69 20.6 67 67 WSW 6 9 30 1016 10 16.09344 0 0
1:52 am 01:52 Mostly Cloudy 80 26.7 69 20.6 69 69 SSW 5 7 30 1016 10 16.09344 0 0
2:52 am 02:52 Cloudy 80 26.7 69 20.6 69 69 S 3 6 30 1016 10 16.09344 0 0
3:52 am 03:52 Cloudy 79 26.1 69 20.6 72 72 SSW 5 7 30 1016 10 16.09344 0 0
4:52 am 04:52 Mostly Cloudy 78 25.6 70 21.1 76 76 SSW 5 7 30 1016 10 16.09344 0 0
5:52 am 05:52 Cloudy 78 25.6 71 21.7 79 79 SSW 7 11 30 1016 10 16.09344 0 0
6:52 am 06:52 Mostly Cloudy 79 26.1 69 20.6 72 72 SW 7 11 30.03 1017 10 16.09344 0 0
7:52 am 07:52 Mostly Cloudy 83 28.3 67 19.4 59 59 W 12 19 30.06 1018 10 16.09344 0 0
8:52 am 08:52 Mostly Cloudy 85 29.4 68 20 57 57 WNW 13 20 30.06 1018 10 16.09344 0 0
9:52 am 09:52 Mostly Cloudy 88 31.1 68 20 52 52 WNW 8 13 30.06 1018 10 16.09344 0 0
10:52 am 10:52 Mostly Cloudy 91 32.8 70 21.1 50 50 W 8 13 30.06 1018 10 16.09344 0 0
11:52 am 11:52 Mostly Cloudy 89 31.7 69 20.6 52 52 WSW 10 17 30.06 1018 10 16.09344 0 0
12:52 pm 12:52 Partly Cloudy 93 33.9 70 21.1 47 47 WNW 8 13 30.06 1018 10 16.09344 0 0
1:52 pm 13:52 Mostly Cloudy 92 33.3 69 20.6 47 47 WSW 6 9 30.03 1017 10 16.09344 0 0
2:52 pm 14:52 Mostly Cloudy 93 33.9 70 21.1 47 47 WSW 8 13 30.03 1017 10 16.09344 0 0
3:52 pm 15:52 Mostly Cloudy 93 33.9 71 21.7 49 49 SW 13 20 30.03 1017 10 16.09344 0 0
4:52 pm 16:52 Mostly Cloudy 94 34.4 70 21.1 46 46 SW 13 20 30 1016 10 16.09344 0 0
5:52 pm 17:52 Mostly Cloudy 94 34.4 69 20.6 44 44 WSW 10 17 30 1016 10 16.09344 0 0
6:52 pm 18:52 Mostly Cloudy 93 33.9 68 20 44 44 WSW 12 19 30 1016 10 16.09344 0 0
7:52 pm 19:52 Mostly Cloudy 92 33.3 70 21.1 49 49 WSW 9 15 30 1016 10 16.09344 0 0
8:52 pm 20:52 Mostly Cloudy 90 32.2 71 21.7 54 54 SW 7 11 30.03 1017 10 16.09344 0 0
9:52 pm 21:52 Partly Cloudy 85 29.4 77 25 77 77 SSE 5 7 30.03 1017 10 16.09344 0 0
10:52 pm 22:52 Partly Cloudy 84 28.9 77 25 80 80 Calm 30.03 1017 10 16.09344 0 0
11:52 pm 23:52 Mostly Cloudy 83 28.3 75 23.9 77 77 S 6 9 30.03 1017 10 16.09344 0 0

Powered by AerisWeather